x

9449880 - Friday Harbor, Wa (frdw1) Weather Station

11:36 - Thu 31st Jul 2014 All times are PDT. -7 hours from GMT.

  • Wind
    6mph, 10mph gusts
  • Sea Temp 53°f
  • Luft Temp 69°f
  • Sea Pressure 1019.6mb
  • 9449880 - Friday Harbor, Wa
  • 9449880 - Friday Harbor, Wa

More Historic Weather Station data

Upgrade to MSW Pro to gain access to the past 30 days of data for over 8000 Wavebouys and Weather Stations around the globe.

Join Pro

Comparision Forecast

View Surf forecast
   
Do 07/31 11:36 6 10 mph 1019.6mb 53f 69f
11:30 6 10 mph 1019.6mb 52f 70f
11:24 6 7 mph 1019.7mb 52f 69f
11:18 5 8 mph 1019.8mb 53f 70f
11:12 6 10 mph 1019.8mb 52f 69f
11:06 7 10 mph 1019.7mb 52f 69f
11:00 8 10 mph 1019.7mb 52f 69f
10:36 10 13 mph 1019.8mb 52f 68f
10:30 9 11 mph 1019.8mb 52f 68f
10:24 5 10 mph 1019.8mb 52f 69f
10:18 6 9 mph 1019.9mb 52f 68f
10:12 3 7 mph 1019.9mb 52f 63f
10:06 6 10 mph 1019.9mb 52f 66f
10:00 5 8 mph 1019.9mb 52f 66f
9:36 5 9 mph 1020.1mb 52f 60f
9:30 5 6 mph 1020.2mb 52f 62f
9:24 3 5 mph 1020.2mb 52f 58f
9:18 1 2 mph 1020.3mb 52f 58f
9:12 1 2 mph 1020.3mb 52f 58f
9:06 2 3 mph 1020.4mb 52f 58f
9:00 1 2 mph 1020.5mb 52f 60f
8:36 1 2 mph 1020.5mb 52f 56f
8:30 2 3 mph 1020.4mb 52f 55f
8:24 2 5 mph 1020.4mb 52f 55f
8:18 2 3 mph 1020.3mb 52f 55f
8:12 3 5 mph 1020.3mb 52f 55f
8:06 3 5 mph 1020.3mb 52f 56f
8:00 3 5 mph 1020.3mb 52f 56f
7:36  -  mph 1020.5mb 52f 59f
7:30  -  1 mph 1020.4mb 52f 58f
7:24  -  mph 1020.4mb 52f 57f
7:18  -  2 mph 1020.4mb 52f 55f
7:12 1 2 mph 1020.4mb 52f 55f
7:06 1 2 mph 1020.4mb 52f 55f
7:00  -  2 mph 1020.4mb 52f 55f
6:36  -  1 mph 1020.4mb 52f 56f
6:30  -  mph 1020.4mb 52f 55f
6:24  -  1 mph 1020.4mb 52f 54f
6:18 1
mph
1020.4mb 52f 53f
6:12  -  mph 1020.4mb 52f 53f
6:06  -  1 mph 1020.4mb 52f 52f
6:00 1 2 mph 1020.4mb 52f 52f
5:36 2 3 mph 1020.3mb 52f 52f
5:30 3
mph
1020.3mb 52f 52f
5:24 2 3 mph 1020.3mb 52f 52f
5:18 2 5 mph 1020.3mb 52f 52f
5:12 5
mph
1020.3mb 52f 52f
5:06 5
mph
1020.4mb 52f 52f
5:00 2 3 mph 1020.3mb 52f 52f
4:36  -  1 mph 1020.3mb 52f 53f
4:30  -  1 mph 1020.1mb 52f 53f
4:24  -  1 mph 1020.1mb 52f 52f
4:18  -  1 mph 1020.1mb 52f 52f
4:12  -  2 mph 1020mb 52f 52f
4:06 2
mph
1020mb 52f 52f
4:00 2 3 mph 1020mb 52f 52f
3:36 3
mph
1019.8mb 52f 55f
3:30 2
mph
1019.8mb 52f 54f
3:24 1 2 mph 1019.7mb 52f 53f
3:18 2 5 mph 1019.7mb 52f 53f
3:12 2 3 mph 1019.6mb 52f 53f
3:06 2 3 mph 1019.5mb 52f 53f
3:00 3 5 mph 1019.4mb 52f 53f
2:36 2 5 mph 1019.4mb 53f 54f
2:30 3 5 mph 1019.5mb 53f 53f
2:24 2 3 mph 1019.5mb 53f 55f
2:18 2
mph
1019.4mb 53f 55f
2:12  -  1 mph 1019.4mb 53f 55f
2:06 1 2 mph 1019.5mb 53f 55f
2:00  -  1 mph 1019.5mb 53f 55f
1:36  -  1 mph 1019.5mb 53f 56f
1:30  -  1 mph 1019.6mb 53f 56f
1:24  -  1 mph 1019.6mb 53f 56f
1:18  -  1 mph 1019.6mb 53f 56f
1:12  -  1 mph 1019.6mb 53f 56f
1:06  -  1 mph 1019.6mb 53f 56f
1:00  -  1 mph 1019.5mb 53f 56f
12:36  -  1 mph 1019.3mb 53f 56f
12:30  -  1 mph 1019.3mb 53f 57f
12:24  -  2 mph 1019.3mb 53f 57f
12:18  -  1 mph 1019.2mb 53f 57f
12:12 1
mph
1019.2mb 53f 58f
12:06  -  1 mph 1019.2mb 53f 57f
12:00  -  2 mph 1019.1mb 53f 57f
Mi 07/30 11:36  -  1 mph 1019mb 52f 58f
11:30  -  2 mph 1018.9mb 52f 58f
11:24  -  2 mph 1018.9mb 52f 58f
11:18  -  2 mph 1018.9mb 52f 58f
11:12  -  2 mph 1018.9mb 52f 58f
11:06 1
mph
1018.9mb 52f 58f
11:00  -  1 mph 1018.8mb 52f 57f
10:36  -  2 mph 1018.8mb 52f 57f
10:30 1 3 mph 1018.8mb 52f 57f
10:24 2 5 mph 1018.7mb 52f 57f
10:18 2 5 mph 1018.8mb 52f 57f
10:12 1 3 mph 1018.8mb 52f 57f
10:06  -  3 mph 1018.8mb 52f 57f
10:00 2 3 mph 1018.9mb 52f 57f
9:36 2 6 mph 1018.7mb 52f 56f
9:30 5 7 mph 1018.7mb 52f 57f
9:24 5 7 mph 1018.7mb 52f 58f
9:18 3 6 mph 1018.6mb 52f 58f
9:12 3 5 mph 1018.6mb 52f 57f
9:06 3 5 mph 1018.5mb 52f 57f
9:00 1 3 mph 1018.5mb 52f 60f
8:36  -  2 mph 1018.5mb 52f 59f
8:30 1 3 mph 1018.4mb 52f 58f
8:24  -  1 mph 1018.4mb 52f 59f
8:18 1 2 mph 1018.4mb 52f 58f
8:12 3 5 mph 1018.5mb 52f 58f
8:06 3 5 mph 1018.5mb 52f 58f
8:00 2 3 mph 1018.6mb 52f 59f
7:36 1 2 mph 1018.7mb 52f 59f
7:30  -  1 mph 1018.7mb 52f 61f
7:24  -  1 mph 1018.8mb 52f 62f
7:18 1 2 mph 1018.8mb 52f 63f
7:12 2 3 mph 1018.8mb 52f 63f
7:06  -  1 mph 1018.9mb 52f 60f
7:00  -  2 mph 1018.9mb 52f 61f
6:36 1 3 mph 1019mb 52f 60f
6:30 2 5 mph 1018.9mb 52f 63f
6:24 3
mph
1019mb 52f 65f
6:18 3 5 mph 1019mb 52f 65f
6:12 5 6 mph 1019.1mb 52f 65f
6:06 2 3 mph 1019.2mb 52f 64f
6:00  -  3 mph 1019.1mb 52f 63f
5:36 2 6 mph 1019.3mb 52f 67f
5:30 5 7 mph 1019.3mb 52f 68f
5:24 7
mph
1019.4mb 52f 68f
5:18 7 8 mph - - 68f
5:12 7 8 mph 1019.5mb 53f 68f
5:06 7 8 mph 1019.6mb 53f 68f
5:00 7 8 mph 1019.6mb 53f 68f
4:36 5 6 mph 1019.8mb 53f 68f
4:30 6 8 mph 1019.8mb 53f 68f
4:24 7 8 mph 1019.9mb 53f 68f
4:18 6 8 mph 1019.9mb 53f 67f
4:12 3 6 mph 1019.9mb 54f 69f
4:06 2 6 mph 1020mb 53f 68f
4:00 6 8 mph 1020mb 53f 67f
3:36 6 8 mph 1020.3mb 53f 68f
3:30 3 6 mph 1020.3mb 53f 69f
3:24 5 7 mph 1020.4mb 53f 69f
3:18 5 6 mph 1020.4mb 53f 68f
3:12 3 5 mph 1020.5mb 53f 69f
3:06 2 5 mph 1020.5mb 53f 69f
3:00 3 5 mph 1020.6mb 53f 69f
2:36 2 6 mph 1020.7mb 53f 68f
2:30 5 6 mph 1020.8mb 53f 68f
2:24 5 6 mph 1020.8mb 53f 68f
2:18 2 5 mph 1020.8mb 53f 69f
2:12 2 6 mph 1020.8mb 53f 67f
2:06 1 3 mph 1020.7mb 53f 69f
2:00 1 3 mph 1020.8mb 53f 68f
1:36 6 7 mph 1020.9mb 53f 68f
1:30 3 5 mph 1021mb 53f 67f
1:24 2 5 mph 1020.9mb 53f 67f
1:18 1 2 mph 1020.9mb 53f 67f
1:12 1 2 mph 1020.9mb 53f 66f
1:06  -  2 mph 1020.8mb 53f 67f
1:00 1 2 mph 1020.9mb 53f 67f
12:54  -  2 mph 1020.9mb 53f 66f
12:48  -  2 mph 1021mb 53f 65f
12:36 2 3 mph 1020.9mb 52f 64f
12:30 2 5 mph 1020.9mb 52f 64f
12:24 3
mph
1020.9mb 52f 62f
12:18 2 3 mph 1020.9mb 52f 64f
12:12 2
mph
1020.9mb 52f 65f
12:06  -  2 mph 1020.9mb 52f 66f
12:00  -  2 mph 1020.9mb 52f 64f
11:54 2 3 mph 1020.9mb 52f 65f
11:48 1 2 mph 1020.9mb 52f 65f
11:36  -  2 mph 1021mb 52f 66f
11:30  -  2 mph 1021mb 52f 65f
11:24  -  1 mph 1020.9mb 52f 64f
11:18  -  1 mph 1020.9mb 52f 64f
11:12 1 2 mph 1021mb 52f 63f
11:06  -  2 mph 1021mb 52f 59f
11:00 2 3 mph 1021mb 52f 58f
10:54 2 5 mph 1021mb 52f 57f
10:48 3 5 mph 1021mb 52f 56f
10:36 3 5 mph 1021mb 52f 56f
10:30 3 6 mph 1021mb 52f 55f
10:24 5 6 mph 1020.9mb 52f 55f
10:18 3 6 mph 1021mb 52f 56f
10:12 5 6 mph 1020.9mb 52f 55f
10:06 3 5 mph 1021mb 52f 58f
10:00 2 3 mph 1021mb 52f 58f
9:54 2 5 mph 1021mb 52f 57f
9:48 3 5 mph 1021.1mb 52f 56f
9:36 2 5 mph 1021.2mb 52f 56f
9:30 3 5 mph 1021.2mb 52f 56f
9:24 3 5 mph 1021.2mb 52f 56f
9:18 2 3 mph 1021.2mb 52f 56f
9:12 2 3 mph 1021.2mb 52f 57f
9:06 2 5 mph 1021.2mb 52f 56f
9:00 3 6 mph 1021.1mb 52f 56f
8:54 3 5 mph 1021.1mb 52f 56f
8:48 2 3 mph 1021.1mb 52f 56f
8:36 2
mph
1021mb 52f 58f
8:30 1 2 mph 1021mb 52f 58f
8:24  -  1 mph 1021.1mb 52f 60f
8:18  -  1 mph 1021.1mb 52f 60f
8:12  -  1 mph - - 60f
8:06  -  1 mph - - 61f
8:00  -  1 mph - - 60f
7:54  -  1 mph - - 63f
7:48  -  1 mph 1021mb 52f 59f
7:36  -  2 mph 1020.9mb 52f 58f
7:30 1 2 mph 1020.9mb 52f 58f
7:24  -  mph 1020.9mb 52f 61f
7:18  -  1 mph 1020.9mb 52f 59f
7:12  -  1 mph 1020.9mb 52f 58f
7:06  -  1 mph 1020.8mb 52f 58f
7:00  -  1 mph 1020.8mb 52f 57f
6:54  -  mph 1020.7mb 52f 58f
6:48  -  1 mph 1020.7mb 52f 55f
6:36  -  1 mph 1020.7mb 52f 54f
6:30  -  mph 1020.6mb 52f 56f
6:24  -  1 mph 1020.5mb 52f 55f
6:18  -  1 mph 1020.5mb 52f 54f
6:12  -  2 mph 1020.4mb 52f 53f
6:06  -  1 mph 1020.3mb 52f 53f
6:00  -  2 mph 1020.4mb 52f 52f
5:54 1 2 mph 1020.3mb 52f 53f
5:48  -  1 mph 1020.2mb 52f 53f
5:36  -  mph 1020.1mb 52f 53f
5:30  -  1 mph 1020.1mb 52f 53f
5:24  -  1 mph 1020mb 52f 53f
5:18  -  1 mph 1020mb 52f 53f
5:12  -  1 mph 1020mb 52f 53f
5:06  -  1 mph 1020mb 52f 53f
5:00  -  mph 1020mb 52f 53f
4:54  -  mph 1019.9mb 52f 53f
4:48  -  1 mph 1019.9mb 52f 53f
4:36  -  1 mph 1019.7mb 52f 53f
4:30  -  1 mph 1019.7mb 52f 53f
4:24  -  2 mph 1019.6mb 52f 53f
4:18 1 2 mph 1019.6mb 52f 53f
4:12 2
mph
1019.6mb 52f 53f
4:06 2 3 mph 1019.6mb 52f 53f
4:00 1 3 mph 1019.5mb 52f 53f
3:54 2 3 mph 1019.5mb 52f 53f
3:48 3 5 mph 1019.5mb 52f 53f
3:36 3 6 mph 1019.4mb 52f 53f
3:30 2 5 mph 1019.4mb 52f 53f
3:24 5 6 mph 1019.4mb 52f 53f
3:18 2 3 mph 1019.3mb 52f 53f
3:12 3 5 mph 1019.3mb 52f 53f
3:06 2 3 mph 1019.2mb 52f 53f
3:00 2 3 mph 1019.2mb 52f 53f
2:54 2 5 mph 1019.2mb 52f 54f
2:48 2 6 mph 1019.1mb 52f 54f
2:36 3 5 mph 1019.1mb 52f 54f
2:30 1 6 mph 1019mb 52f 54f
2:24 2 5 mph 1019mb 52f 54f
2:18 1 3 mph 1018.9mb 52f 55f
2:12 2 5 mph 1018.9mb 52f 55f
2:06 2 5 mph 1018.9mb 52f 55f
2:00 2 3 mph 1018.9mb 52f 55f
1:54 1 3 mph 1018.8mb 52f 55f
1:48 1 2 mph 1018.8mb 52f 55f
1:36  -  2 mph 1018.8mb 52f 56f
1:30 1 2 mph 1018.8mb 52f 56f
1:24 1 2 mph 1018.8mb 52f 56f
1:18 1 2 mph 1018.8mb 52f 56f
1:12  -  1 mph 1018.8mb 52f 56f
1:06  -  2 mph 1018.7mb 52f 56f
1:00 1 2 mph 1018.7mb 52f 56f
12:54  -  1 mph 1018.7mb 52f 56f
12:48  -  2 mph 1018.7mb 52f 56f
12:36 1 3 mph 1018.6mb 52f 55f
12:30  -  1 mph 1018.6mb 52f 55f
12:24  -  1 mph 1018.6mb 52f 55f
12:18  -  2 mph 1018.6mb 52f 56f
12:12  -  3 mph 1018.6mb 52f 56f
12:06 1 3 mph 1018.5mb 52f 56f
12:00  -  1 mph 1018.5mb 52f 56f
Di 07/29 11:54  -  2 mph 1018.4mb 52f 56f
11:48  -  2 mph 1018.4mb 52f 56f
11:36 1 3 mph 1018.2mb 52f 56f
11:30 2 3 mph 1018.2mb 52f 56f
11:24 2 3 mph 1018.1mb 52f 56f
11:18 1 3 mph 1018.1mb 52f 56f
11:12 3 5 mph 1018.1mb 52f 56f
11:06 1 3 mph 1018.1mb 52f 56f
11:00 1 5 mph 1018.1mb 52f 56f
10:54 2 5 mph 1018.1mb 52f 55f
10:48 2 5 mph 1018mb 52f 55f
10:36 2 5 mph 1017.9mb 52f 56f
10:30 3 5 mph 1018mb 52f 56f
10:24 2 6 mph 1018mb 52f 56f
10:18 3 5 mph 1018mb 51f 56f
10:12 3 5 mph 1017.9mb 52f 56f
10:06 3
mph
1017.9mb 52f 56f
10:00 3 5 mph 1017.8mb 52f 56f
9:54 3 6 mph 1017.8mb 52f 56f
9:48 3 6 mph 1017.8mb 52f 57f
9:36 3 5 mph 1017.7mb 52f 57f
9:30 3 5 mph 1017.7mb 52f 56f
9:24 5 6 mph 1017.6mb 52f 57f
9:18 3
mph
1017.6mb 52f 57f
9:12 3
mph
1017.6mb 52f 57f
9:06 2 3 mph 1017.6mb 52f 58f
9:00 2 3 mph 1017.6mb 52f 58f
8:54 2 6 mph 1017.6mb 52f 58f
8:48 2 6 mph 1017.5mb 52f 59f
8:36 3 5 mph 1017.4mb 52f 59f
8:30 3 5 mph 1017.5mb 52f 60f
8:24 5 7 mph 1017.5mb 52f 60f
8:18 5 6 mph 1017.5mb 52f 60f
8:12 6 7 mph 1017.4mb 52f 60f
8:06 5 6 mph 1017.4mb 52f 60f
8:00 3 5 mph 1017.5mb 52f 60f
7:54 3 7 mph 1017.5mb 52f 60f
7:48 6
mph
1017.5mb 52f 60f
7:36 5 6 mph 1017.4mb 52f 60f
7:30 5 7 mph 1017.4mb 52f 60f
7:24 6 7 mph 1017.4mb 52f 61f
7:18 2 6 mph 1017.5mb 52f 65f
7:12  -  2 mph 1017.5mb 52f 67f
7:06 2 3 mph 1017.5mb 52f 64f
7:00 3 6 mph 1017.5mb 52f 65f
6:54 3 5 mph 1017.5mb 52f 65f
6:48 3 5 mph 1017.5mb 52f 64f
6:36 2 5 mph 1017.6mb 52f 67f
6:30 2 3 mph 1017.6mb 52f 67f
6:24 2 5 mph 1017.7mb 52f 65f
6:18 5 6 mph 1017.7mb 52f 63f
6:12 5 7 mph 1017.7mb 52f 62f
6:06 5 7 mph 1017.8mb 52f 62f
6:00 5 7 mph 1017.9mb 52f 65f
5:54 3 5 mph 1018mb 52f 65f
5:48 5 6 mph 1018mb 52f 63f
5:36 3 6 mph 1018.1mb 52f 64f
5:30 5 6 mph 1018.2mb 51f 62f
5:24 5 6 mph 1018.2mb 51f 62f
5:18 5 6 mph 1018.2mb 51f 62f
5:12 5 7 mph 1018.3mb 52f 62f
5:06 5 6 mph 1018.4mb 52f 64f
5:00 5 7 mph 1018.4mb 52f 63f
4:54 5 6 mph 1018.5mb 52f 63f
4:48 1 3 mph 1018.5mb 52f 67f
4:36 8 9 mph 1018.6mb 52f 74f
4:30 9 10 mph 1018.7mb 52f 74f
4:24 6 9 mph 1018.8mb 52f 70f
4:18 5 7 mph 1018.9mb 52f 72f
4:12 6 7 mph 1018.9mb 53f 73f
4:06 6 8 mph 1019mb 53f 71f
4:00 2 8 mph 1019mb 53f 71f
3:54 7 9 mph 1019.1mb 53f 73f
3:48 7 8 mph 1019.1mb 53f 73f
3:36 2 5 mph 1019.3mb 53f 72f
3:30  -  2 mph 1019.3mb 53f 70f
3:24 2 3 mph 1019.3mb 53f 67f
3:18  -  2 mph 1019.4mb 53f 70f
3:12 1 3 mph 1019.5mb 53f 69f
3:06 1 3 mph 1019.6mb 53f 73f
3:00 2 5 mph 1019.6mb 53f 73f
2:54  -  2 mph 1019.7mb 53f 72f
2:48 2 3 mph 1019.7mb 53f 72f
2:36 1 2 mph 1019.8mb 53f 72f
2:30  -  3 mph 1019.9mb 53f 71f
2:24 2 3 mph 1019.9mb 53f 71f
2:18 1 3 mph 1020mb 53f 69f
2:12  -  2 mph 1020mb 53f 67f
2:06  -  2 mph 1020mb 53f 66f
2:00 2 3 mph 1020.1mb 53f 65f
1:54 2 3 mph 1020.1mb 53f 65f
1:48  -  1 mph 1020.2mb 53f 70f
1:36 2 3 mph 1020.3mb 53f 69f
1:30 2 5 mph 1020.3mb 53f 68f
1:24 3 5 mph 1020.4mb 53f 66f
1:18 3 6 mph 1020.4mb 53f 66f
1:12 1 3 mph 1020.4mb 53f 64f
1:06  -  2 mph 1020.4mb 53f 63f
1:00 1 3 mph 1020.4mb 53f 61f
12:54  -  2 mph 1020.4mb 53f 62f
12:48  -  2 mph 1020.4mb 52f 63f
12:36 2 3 mph 1020.5mb 52f 60f
12:30 2
mph
1020.5mb 52f 62f
12:24 2 5 mph 1020.6mb 52f 62f
12:18 2 3 mph 1020.6mb 52f 62f
12:12 2 5 mph 1020.6mb 52f 60f
12:06 3 6 mph 1020.6mb 52f 59f
12:00 5 6 mph 1020.6mb 52f 58f
11:54 5
mph
1020.7mb 52f 58f
11:48 3 6 mph 1020.7mb 52f 57f
11:36 3
mph
1020.8mb 52f 58f
11:30 2 3 mph 1020.8mb 52f 60f
11:24 2
mph
1020.8mb 52f 60f
11:18 1 5 mph 1020.8mb 52f 60f
11:12 2 5 mph 1020.8mb 52f 59f
11:06 3 6 mph 1020.8mb 52f 60f
11:00 3 5 mph 1020.9mb 52f 60f
10:54 2 5 mph 1020.9mb 52f 60f
10:48 5 6 mph 1020.9mb 52f 59f
10:36 2 3 mph 1020.8mb 52f 59f
10:30 3 5 mph 1020.7mb 52f 59f
10:24 3 5 mph 1020.7mb 52f 58f
10:18 2 5 mph 1020.7mb 52f 58f
10:12 2 3 mph 1020.7mb 52f 58f
10:06 3 5 mph 1020.6mb 52f 57f
10:00 2 5 mph 1020.6mb 52f 57f
9:54 3 5 mph 1020.7mb 52f 56f
9:48 3 6 mph 1020.7mb 52f 56f
9:36 5 6 mph 1020.7mb 52f 56f
9:30 5
mph
1020.7mb 52f 56f
9:24 3 5 mph 1020.7mb 52f 56f
9:18 3 5 mph 1020.7mb 52f 56f
9:12 2 6 mph 1020.7mb 52f 56f
9:06 3 5 mph 1020.8mb 52f 56f
9:00 5
mph
1020.8mb 52f 56f
8:54 3 6 mph 1020.8mb 52f 56f
8:48 3 5 mph 1020.8mb 52f 56f
8:36 3 5 mph 1020.7mb 52f 55f
8:30 2 5 mph 1020.7mb 52f 56f
8:24 2 3 mph 1020.6mb 52f 56f
8:18 2 3 mph 1020.6mb 52f 56f
8:12 2 3 mph 1020.6mb 52f 56f
8:06 3
mph
1020.5mb 52f 55f
8:00 3
mph
1020.5mb 52f 55f
7:54 3
mph
1020.5mb 51f 55f
7:48 2
mph
1020.5mb 51f 56f
7:36  -  1 mph 1020.5mb 52f 58f
7:30  -  2 mph 1020.4mb 52f 57f
7:24 1
mph
1020.4mb 52f 57f
7:18 1 2 mph 1020.4mb 52f 56f
7:12  -  2 mph 1020.4mb 52f 56f
7:06 1 2 mph 1020.3mb 52f 56f
7:00  -  1 mph 1020.3mb 52f 56f
6:54 1 2 mph 1020.2mb 52f 56f
6:48  -  mph 1020.2mb 52f 57f
6:36  -  1 mph 1020.1mb 52f 55f
6:30  -  1 mph 1020.1mb 52f 55f
6:24 1 2 mph 1020mb 52f 55f
6:18  -  2 mph 1020mb 52f 55f
6:12  -  1 mph 1019.9mb 52f 54f
6:06  -  mph 1019.9mb 52f 55f
6:00  -  mph 1019.9mb 52f 53f
5:54  -  mph 1019.9mb 52f 52f
5:48  -  2 mph 1019.8mb 52f 52f
5:36  -  1 mph 1019.7mb 52f 53f
5:30  -  mph 1019.6mb 52f 53f
5:24  -  1 mph 1019.6mb 52f 53f
5:18  -  1 mph 1019.5mb 52f 53f
5:12  -  1 mph 1019.5mb 52f 53f
5:06  -  2 mph 1019.5mb 52f 53f
5:00  -  1 mph 1019.5mb 52f 53f
4:54  -  2 mph 1019.4mb 52f 53f
4:48 1
mph
1019.4mb 52f 53f
4:36  -  2 mph 1019.3mb 52f 54f
4:30 1 2 mph 1019.3mb 52f 54f
4:24  -  2 mph 1019.3mb 52f 54f
4:18  -  1 mph 1019.2mb 52f 54f
4:12 1 2 mph 1019.1mb 52f 54f
4:06 1 2 mph 1019.1mb 52f 54f
4:00  -  2 mph 1019.1mb 52f 54f
3:54  -  1 mph 1019mb 52f 54f
3:48  -  1 mph 1019mb 52f 54f
3:36  -  1 mph 1018.9mb 52f 54f
3:30  -  1 mph 1018.9mb 52f 54f
3:24 1 2 mph 1018.9mb 52f 53f
3:18 2 3 mph 1018.9mb 52f 54f
3:12  -  2 mph 1018.8mb 52f 54f
3:06  -  2 mph 1018.8mb 52f 54f
3:00 1 2 mph 1018.8mb 52f 54f
2:54 1 3 mph 1018.7mb 52f 54f
2:48 1 2 mph 1018.8mb 52f 54f
2:36  -  1 mph 1018.8mb 52f 54f
2:30  -  1 mph 1018.8mb 52f 54f
2:24  -  2 mph 1018.8mb 52f 54f
2:18  -  2 mph 1018.8mb 52f 54f
2:12 1 3 mph 1018.8mb 52f 54f
2:06 2 3 mph 1018.8mb 52f 53f
2:00 1 2 mph 1018.8mb 52f 53f
1:54 2 3 mph 1018.7mb 52f 54f
1:48 1 2 mph 1018.7mb 52f 54f
1:36 1 2 mph 1018.7mb 52f 54f
1:30 2 3 mph 1018.6mb 52f 54f
1:24 1 2 mph 1018.6mb 52f 54f
1:18 2 3 mph 1018.7mb 52f 54f
1:12 2 3 mph 1018.7mb 52f 54f
1:06 1 2 mph 1018.6mb 52f 54f
1:00  -  2 mph 1018.6mb 52f 54f
12:54  -  1 mph 1018.6mb 52f 54f
12:48  -  2 mph 1018.6mb 52f 54f
12:36  -  mph 1018.6mb 52f 54f
12:30  -  2 mph 1018.6mb 52f 54f
12:24 2 3 mph 1018.6mb 52f 54f
12:18 3
mph
1018.6mb 52f 54f
12:12 1 2 mph 1018.6mb 52f 55f
12:06 3 5 mph 1018.6mb 52f 55f
12:00 2 5 mph 1018.6mb 52f 55f
Mo 07/28 11:54 2 5 mph 1018.6mb 52f 55f
11:48 2 3 mph 1018.6mb 52f 56f
11:36 2 5 mph 1018.6mb 52f 56f
11:30 2 3 mph 1018.6mb 52f 56f
11:24 2 5 mph 1018.6mb 52f 56f
11:18 1 3 mph 1018.5mb 52f 55f
11:12 1 2 mph 1018.6mb 52f 55f
11:06 2 3 mph 1018.6mb 52f 55f
11:00 2 5 mph 1018.6mb 52f 55f
10:54 1 3 mph 1018.6mb 52f 55f
10:48 2 3 mph 1018.5mb 52f 55f
10:36 2 3 mph 1018.5mb 51f 57f
10:30 1 2 mph 1018.4mb 51f 57f
10:24  -  1 mph 1018.4mb 52f 57f
10:18  -  1 mph 1018.4mb 51f 57f
10:12 1 2 mph 1018.3mb 51f 57f
10:06  -  2 mph 1018.3mb 51f 58f
10:00 1 3 mph 1018.3mb 51f 58f
9:54 3
mph
1018.3mb 51f 58f
9:48 2 3 mph 1018.3mb 51f 58f
9:36 3 5 mph 1018.2mb 51f 58f
9:30 3 6 mph 1018.2mb 51f 58f
9:24 1 3 mph 1018.2mb 51f 59f
9:18  -  3 mph 1018.1mb 51f 59f
9:12 1 3 mph 1018.2mb 51f 59f
9:06  -  1 mph 1018.1mb 51f 59f
9:00  -  1 mph 1018mb 51f 59f
8:54 1 2 mph 1018mb 51f 59f
8:48 2 3 mph 1017.9mb 51f 59f
8:36  -  1 mph 1017.9mb 51f 61f
8:30  -  1 mph 1017.9mb 51f 61f
8:24 1 2 mph 1017.9mb 51f 61f
8:18 2 5 mph 1017.9mb 52f 60f
8:12 3 5 mph 1017.9mb 52f 61f
8:06 1 2 mph 1017.9mb 52f 63f
8:00 2 3 mph 1017.9mb 52f 63f
7:54 2 3 mph 1018mb 52f 63f
7:48 1 2 mph 1018mb 52f 63f
7:36 2 3 mph 1018mb 52f 66f
7:30 1 3 mph 1018mb 52f 65f
7:24  -  3 mph 1018mb 52f 62f
7:18 3 5 mph 1018mb 51f 60f
7:12 3 6 mph 1018mb 51f 60f
7:06 5 6 mph 1018mb 51f 59f
7:00 5 7 mph 1018.1mb 51f 60f
6:54 5 6 mph 1018mb 51f 59f
6:48 5 7 mph 1018mb 51f 60f
6:36 5 7 mph 1018mb 51f 63f
6:30 2 5 mph 1018mb 51f 70f
6:24 2 5 mph 1018.1mb 51f 72f
6:18 1 7 mph 1018.3mb 51f 73f
6:12 5 7 mph 1018.3mb 51f 73f
6:06 8 9 mph 1018.4mb 51f 72f
6:00 8 10 mph 1018.4mb 51f 73f
5:54 10 11 mph 1018.5mb 51f 74f
5:48 6 10 mph 1018.5mb 51f 74f
5:36 8 10 mph 1018.5mb 51f 73f
5:30 10 14 mph 1018.6mb 51f 74f
5:24 10 13 mph 1018.7mb 51f 74f
5:18 10 14 mph 1018.7mb 51f 74f
5:12 10 13 mph 1018.8mb 51f 74f
5:06 9 13 mph 1018.8mb 51f 74f
5:00 9 13 mph 1018.8mb 51f 74f
4:54 7 11 mph 1018.8mb 51f 73f
4:48 9 11 mph 1018.9mb 51f 74f
4:36 9 11 mph 1019mb 51f 73f
4:30 9 11 mph 1019mb 51f 73f
4:24 7 9 mph 1019mb 51f 74f
4:18 6 8 mph 1019mb 51f 74f
4:12 7 10 mph 1019.1mb 51f 75f
4:06 7 10 mph 1019.1mb 51f 75f
4:00 8 10 mph 1019.1mb 52f 74f
3:54 6 8 mph 1019.2mb 51f 73f
3:48 2 6 mph 1019.2mb 52f 71f
3:36 3 6 mph 1019.3mb 52f 72f
3:30 3 5 mph 1019.3mb 52f 71f
3:24 1 5 mph 1019.4mb 52f 68f
3:18 2 5 mph 1019.4mb 53f 66f
3:12 2 3 mph 1019.5mb 53f 69f
3:06 5
mph
1019.5mb 53f 66f
3:00 3 5 mph 1019.5mb 53f 67f
2:54 3 5 mph 1019.5mb 53f 69f
2:48 3 5 mph 1019.5mb 53f 70f
2:36 3 5 mph 1019.5mb 53f 68f
2:30 3 6 mph 1019.5mb 53f 69f
2:24 5 6 mph 1019.5mb 52f 67f
2:18 3 5 mph 1019.5mb 52f 66f
2:12 3 5 mph 1019.4mb 52f 68f
2:06 2 5 mph 1019.4mb 52f 69f
2:00 2 5 mph 1019.5mb 52f 69f
1:54 2 5 mph 1019.4mb 52f 69f
1:48 2 3 mph 1019.5mb 52f 69f
1:36 5 7 mph 1019.5mb 52f 73f
1:30 1 3 mph 1019.5mb 52f 73f
1:24 3 5 mph 1019.6mb 52f 72f
1:18 2 5 mph 1019.6mb 52f 72f
1:12 3
mph
1019.7mb 52f 73f
1:06 2 5 mph 1019.7mb 52f 73f
1:00 2 7 mph 1019.8mb 52f 74f
12:54 3 9 mph 1019.7mb 52f 74f
12:48 6 9 mph 1019.8mb 52f 74f
12:36 5 9 mph 1019.8mb 52f 73f
12:30 7 9 mph 1019.8mb 52f 73f
12:24 3 10 mph 1019.8mb 52f 73f
12:18 5 8 mph 1019.8mb 52f 73f
12:12 5 8 mph 1019.9mb 52f 72f
12:06 5 8 mph 1019.9mb 52f 72f
12:00 5 7 mph 1019.9mb 52f 72f
11:54 3 8 mph 1019.9mb 52f 71f
11:48 5 8 mph 1019.9mb 52f 71f
11:36 6 9 mph 1020mb 52f 70f
11:30 5 9 mph 1020mb 52f 71f
11:24 5 8 mph 1020mb 52f 71f
11:18 7 10 mph 1020mb 52f 70f
11:12 6 9 mph 1020mb 52f 70f
11:06 6 9 mph 1020mb 52f 69f
11:00 6 9 mph 1020mb 52f 69f
10:54 7 9 mph 1020mb 52f 69f
10:48 6 9 mph 1020mb 52f 69f
10:36 5 7 mph 1020mb 52f 69f
10:30 6 9 mph 1020mb 52f 68f
10:24 6 9 mph 1020mb 52f 68f
10:18 1 5 mph 1020mb 52f 68f
10:12 1 3 mph 1020.1mb 52f 66f
10:06 1
mph
1020.2mb 52f 65f
10:00  -  5 mph 1020.1mb 52f 66f
9:54 1 5 mph 1020.2mb 52f 65f
9:48 1 2 mph 1020.2mb 52f 64f
9:36 1 2 mph 1020.3mb 52f 57f
9:30 2 5 mph 1020.4mb 52f 56f
9:24 3 5 mph 1020.4mb 51f 57f
9:18 3 5 mph 1020.4mb 51f 57f
9:12 2 3 mph 1020.5mb 51f 56f
9:06 2 5 mph 1020.5mb 51f 56f
9:00 3 5 mph 1020.5mb 51f 56f
8:54 3 5 mph 1020.5mb 51f 57f
8:48 5
mph
1020.5mb 51f 56f
8:36 2 3 mph 1020.6mb 51f 60f
8:30  -  2 mph 1020.6mb 51f 60f
8:24  -  1 mph 1020.6mb 51f 58f
8:18 1 2 mph 1020.5mb 51f 58f
8:12 2
mph
1020.5mb 51f 57f
8:06 1 2 mph 1020.4mb 51f 58f
8:00 1 2 mph 1020.5mb 51f 57f
7:54 1 2 mph 1020.4mb 51f 57f
7:48  -  2 mph 1020.4mb 51f 58f
7:36  -  1 mph 1020.3mb 51f 59f
7:30  -  1 mph 1020.3mb 51f 59f
7:24  -  1 mph 1020.3mb 51f 58f
7:18  -  mph 1020.3mb 51f 58f
7:12  -  1 mph 1020.3mb 51f 57f
7:06  -  1 mph 1020.3mb 51f 56f
7:00 2
mph
1020.3mb 51f 55f
6:54 1 2 mph 1020.2mb 52f 56f
6:48 1 2 mph 1020.2mb 52f 55f
6:36  -  1 mph 1020.3mb 52f 56f
6:30  -  1 mph 1020.3mb 52f 54f
6:24  -  2 mph 1020.2mb 51f 55f
6:18 2
mph
1020.2mb 51f 54f
6:12 1 2 mph 1020.1mb 51f 54f
6:06  -  mph - - 54f
6:00  -  1 mph - - 53f
5:54  -  1 mph - - 52f
5:48  -  1 mph - - 53f
5:36  -  1 mph 1020mb 51f 53f
5:30  -  2 mph 1020mb 51f 53f
5:24 2
mph
1020mb 51f 53f
5:18 1 2 mph 1019.9mb 52f 53f
5:12 1 2 mph 1019.9mb 52f 54f
5:06 1 2 mph 1019.9mb 52f 53f
5:00 1 2 mph 1019.8mb 52f 54f
4:54  -  1 mph 1019.8mb 52f 55f
4:48  -  1 mph 1019.8mb 52f 55f
4:36 1 2 mph 1019.8mb 52f 55f
4:30 2
mph
1019.7mb 52f 54f
4:24 1 2 mph 1019.7mb 52f 54f
4:18 1 2 mph 1019.6mb 52f 54f
4:12 1 3 mph 1019.5mb 52f 54f
4:06 3 5 mph 1019.5mb 52f 54f
4:00  -  2 mph 1019.5mb 52f 56f
3:54 1 2 mph 1019.5mb 52f 55f
3:48  -  2 mph 1019.4mb 52f 56f
3:36 1 2 mph 1019.4mb 52f 56f
3:30  -  1 mph 1019.4mb 52f 56f
3:24  -  1 mph 1019.4mb 52f 56f
3:18  -  mph 1019.4mb 52f 56f
3:12  -  1 mph 1019.4mb 52f 56f
3:06  -  1 mph 1019.4mb 52f 56f
3:00  -  1 mph 1019.4mb 52f 56f
2:54 1 2 mph 1019.4mb 52f 55f
2:48 2
mph
1019.4mb 52f 55f
2:36  -  mph 1019.3mb 52f 56f
2:30  -  mph 1019.4mb 52f 56f
2:24  -  mph 1019.4mb 52f 56f
2:18  -  mph 1019.4mb 52f 56f
2:12  -  mph 1019.4mb 52f 56f
2:06  -  1 mph 1019.4mb 52f 56f
2:00  -  1 mph 1019.4mb 52f 56f
1:54  -  1 mph 1019.4mb 52f 56f
1:48  -  1 mph 1019.4mb 52f 56f
1:36  -  1 mph 1019.4mb 52f 56f
1:30  -  2 mph 1019.5mb 52f 56f
1:24  -  2 mph 1019.5mb 52f 57f
1:18  -  1 mph 1019.5mb 52f 57f
1:12  -  1 mph 1019.5mb 52f 57f
1:06  -  1 mph 1019.6mb 52f 57f
1:00  -  1 mph 1019.6mb 52f 58f
12:54  -  2 mph 1019.5mb 52f 58f
12:48  -  1 mph 1019.6mb 52f 58f
12:36  -  1 mph 1019.6mb 51f 58f
12:30  -  1 mph 1019.6mb 51f 58f
12:24  -  1 mph 1019.5mb 51f 57f
12:18  -  1 mph 1019.6mb 51f 57f
12:12  -  1 mph 1019.5mb 51f 57f
12:06  -  1 mph 1019.5mb 51f 57f
12:00  -  1 mph 1019.4mb 51f 57f
So 07/27 11:54  -  1 mph 1019.5mb 51f 56f
11:48  -  1 mph 1019.4mb 51f 56f
11:36  -  1 mph 1019.4mb 51f 55f
11:30  -  mph 1019.4mb 51f 55f
11:24  -  1 mph 1019.4mb 51f 56f
11:18  -  1 mph 1019.4mb 51f 57f
11:12 1 2 mph 1019.4mb 51f 56f
11:06  -  mph 1019.4mb 51f 56f
11:00  -  mph 1019.4mb 51f 56f
10:54  -  1 mph 1019.4mb 51f 57f
10:48  -  mph 1019.5mb 51f 56f
10:36  -  1 mph 1019.4mb 51f 56f
10:30 1
mph
1019.4mb 51f 56f
10:24  -  1 mph 1019.4mb 51f 57f
10:18  -  mph 1019.4mb 51f 57f
10:12  -  2 mph 1019.3mb 51f 57f
10:06 2
mph
1019.3mb 51f 57f
10:00 2 3 mph 1019.2mb 51f 57f
9:54 1 3 mph 1019.2mb 51f 58f
9:48 2 3 mph 1019.2mb 51f 58f
9:36 3
mph
1019.2mb 51f 59f
9:30 3
mph
1019.2mb 51f 59f
9:24 3 5 mph 1019.1mb 51f 60f
9:18 3 5 mph 1019.1mb 51f 60f
9:12 3 5 mph 1019.1mb 51f 60f
9:06 2 3 mph 1019.1mb 51f 60f
9:00 2 3 mph 1019.1mb 51f 60f
8:54 1 2 mph 1019.1mb 51f 62f
8:48  -  2 mph 1019mb 51f 62f
8:36 1 2 mph 1019mb 51f 62f
8:30 1
mph
1019mb 51f 61f
8:24 1 2 mph 1019mb 51f 60f
8:18 2
mph
1019mb 51f 60f
8:12 1
mph
1019mb 51f 61f
8:06 1 2 mph 1019mb 51f 61f